createdAt,value
2023-01-19T00:00:57.127Z,18.10
2023-01-19T00:01:57.107Z,19.70
2023-01-19T00:02:57.076Z,19.20
2023-01-19T00:03:57.087Z,20.70
2023-01-19T00:04:57.051Z,18.30
2023-01-19T00:05:57.114Z,19.80
2023-01-19T00:06:57.050Z,19.60
2023-01-19T00:07:57.111Z,17.30
2023-01-19T00:08:57.037Z,20.40
2023-01-19T00:09:57.030Z,19.50
2023-01-19T00:10:57.020Z,20.40
2023-01-19T00:11:57.027Z,21.60
2023-01-19T00:12:57.028Z,19.40
2023-01-19T00:13:57.002Z,17.00
2023-01-19T00:14:56.998Z,19.50
2023-01-19T00:15:57.000Z,21.40
2023-01-19T00:16:57.000Z,19.10
2023-01-19T00:17:56.979Z,17.70
2023-01-19T00:18:57.087Z,18.20
2023-01-19T00:19:56.970Z,18.70
2023-01-19T00:20:56.957Z,19.10
2023-01-19T00:21:57.964Z,19.70
2023-01-19T00:22:57.256Z,17.50
2023-01-19T00:23:56.998Z,18.50
2023-01-19T00:24:56.963Z,19.50
2023-01-19T00:25:56.920Z,17.10
2023-01-19T00:26:56.914Z,18.20
2023-01-19T00:27:57.157Z,17.80
2023-01-19T00:28:57.929Z,17.40
2023-01-19T00:29:56.917Z,18.80
2023-01-19T00:30:56.909Z,17.40
2023-01-19T00:31:56.894Z,17.10
2023-01-19T00:32:57.018Z,18.00
2023-01-19T00:33:57.896Z,17.30
2023-01-19T00:34:56.893Z,17.20
2023-01-19T00:35:56.922Z,19.50
2023-01-19T00:36:56.892Z,17.40
2023-01-19T00:37:56.863Z,14.80
2023-01-19T00:38:56.874Z,15.90
2023-01-19T00:39:56.841Z,18.60
2023-01-19T00:40:56.840Z,16.40
2023-01-19T00:41:56.837Z,13.90
2023-01-19T00:42:56.836Z,18.00
2023-01-19T00:43:56.831Z,47.60
2023-01-19T00:44:56.831Z,17.40
2023-01-19T00:45:56.884Z,15.30
2023-01-19T00:46:56.802Z,19.60
2023-01-19T00:47:56.811Z,17.90
2023-01-19T00:48:56.792Z,18.40
2023-01-19T00:49:56.792Z,18.70
2023-01-19T00:50:56.810Z,27.90
2023-01-19T00:51:56.772Z,14.70
2023-01-19T00:52:56.766Z,18.30
2023-01-19T00:53:56.780Z,16.10
2023-01-19T00:54:56.758Z,17.40
2023-01-19T00:55:56.768Z,17.90
2023-01-19T00:56:56.773Z,17.60
2023-01-19T00:57:56.746Z,17.10
2023-01-19T00:58:56.728Z,15.70
2023-01-19T00:59:56.728Z,15.10
2023-01-19T01:00:56.855Z,17.20
2023-01-19T01:01:56.909Z,18.30
2023-01-19T01:02:56.758Z,15.50
2023-01-19T01:03:56.704Z,28.30
2023-01-19T01:04:57.700Z,17.20
2023-01-19T01:05:56.713Z,16.20
2023-01-19T01:06:56.704Z,16.10
2023-01-19T01:07:56.709Z,12.90
2023-01-19T01:08:56.688Z,16.40
2023-01-19T01:09:56.702Z,17.30
2023-01-19T01:10:56.661Z,16.60
2023-01-19T01:11:56.691Z,19.90
2023-01-19T01:12:58.959Z,14.80
2023-01-19T01:13:56.664Z,16.60
2023-01-19T01:14:56.665Z,15.30
2023-01-19T01:15:56.632Z,16.90
2023-01-19T01:16:56.633Z,17.30
2023-01-19T01:17:56.681Z,17.20
2023-01-19T01:18:56.622Z,17.80
2023-01-19T01:19:56.617Z,19.00
2023-01-19T01:20:56.633Z,14.70
2023-01-19T01:21:56.626Z,15.10
2023-01-19T01:22:56.660Z,17.00
2023-01-19T01:23:56.624Z,15.20
2023-01-19T01:24:56.592Z,17.20
2023-01-19T01:25:56.586Z,16.10
2023-01-19T01:26:56.596Z,15.30
2023-01-19T01:27:56.593Z,15.90
2023-01-19T01:28:56.574Z,14.30
2023-01-19T01:29:56.597Z,18.20
2023-01-19T01:30:56.561Z,14.90
2023-01-19T01:31:56.572Z,16.80
2023-01-19T01:32:56.537Z,16.10
2023-01-19T01:33:56.532Z,15.70
2023-01-19T01:34:56.525Z,14.90
2023-01-19T01:35:56.566Z,16.30
2023-01-19T01:36:56.508Z,14.90
2023-01-19T01:37:56.513Z,18.40
2023-01-19T01:38:56.527Z,16.00
2023-01-19T01:39:56.488Z,15.40
2023-01-19T01:40:56.488Z,18.60
2023-01-19T01:41:57.570Z,15.40
2023-01-19T01:42:56.459Z,15.80
2023-01-19T01:43:56.472Z,16.20
2023-01-19T01:44:56.476Z,17.30
2023-01-19T01:45:56.479Z,17.90
2023-01-19T01:46:56.483Z,15.30
2023-01-19T01:47:56.479Z,15.80
2023-01-19T01:48:56.475Z,18.80
2023-01-19T01:49:56.447Z,16.70
2023-01-19T01:50:56.461Z,17.80
2023-01-19T01:51:56.444Z,19.00
2023-01-19T01:53:06.319Z,17.90
2023-01-19T01:53:57.438Z,17.30
2023-01-19T01:54:56.402Z,16.90
2023-01-19T01:55:57.028Z,16.40
2023-01-19T01:56:56.439Z,19.30
2023-01-19T01:57:56.634Z,18.70
2023-01-19T01:58:56.533Z,16.20
2023-01-19T01:59:56.445Z,18.50
2023-01-19T02:00:56.596Z,23.40
2023-01-19T02:01:56.517Z,16.60
2023-01-19T02:02:56.523Z,19.20
2023-01-19T02:03:56.525Z,18.40
2023-01-19T02:04:56.488Z,17.80
2023-01-19T02:05:56.517Z,15.50
2023-01-19T02:06:56.404Z,14.80
2023-01-19T02:07:56.417Z,16.80
2023-01-19T02:08:56.430Z,17.10
2023-01-19T02:09:56.324Z,17.10
2023-01-19T02:10:56.329Z,16.80
2023-01-19T02:11:56.304Z,15.40
2023-01-19T02:12:56.316Z,18.70
2023-01-19T02:13:56.289Z,18.10
2023-01-19T02:14:56.271Z,20.20
2023-01-19T02:15:56.276Z,15.30
2023-01-19T02:16:57.263Z,16.90
2023-01-19T02:17:56.267Z,15.50
2023-01-19T02:18:56.244Z,16.80
2023-01-19T02:19:56.267Z,16.50
2023-01-19T02:20:56.236Z,16.30
2023-01-19T02:21:56.231Z,15.90
2023-01-19T02:22:56.247Z,15.80
2023-01-19T02:23:56.218Z,20.20
2023-01-19T02:24:56.203Z,14.70
2023-01-19T02:25:56.225Z,17.80
2023-01-19T02:26:56.200Z,18.00
2023-01-19T02:27:56.204Z,19.40
2023-01-19T02:28:56.194Z,20.00
2023-01-19T02:29:56.176Z,20.10
2023-01-19T02:30:56.213Z,17.00
2023-01-19T02:31:56.190Z,14.60
2023-01-19T02:32:56.190Z,17.50
2023-01-19T02:33:56.144Z,19.50
2023-01-19T02:34:56.168Z,16.80
2023-01-19T02:35:56.156Z,17.80
2023-01-19T02:36:56.146Z,20.30
2023-01-19T02:37:56.125Z,18.80
2023-01-19T02:38:56.236Z,19.10
2023-01-19T02:39:56.117Z,20.00
2023-01-19T02:40:56.115Z,17.50
2023-01-19T02:41:56.164Z,18.40
2023-01-19T02:42:56.098Z,17.50
2023-01-19T02:43:56.105Z,17.00
2023-01-19T02:44:56.091Z,20.20
2023-01-19T02:45:56.118Z,20.20
2023-01-19T02:46:56.078Z,20.60
2023-01-19T02:47:56.078Z,19.50
2023-01-19T02:48:56.094Z,18.90
2023-01-19T02:49:56.062Z,18.20
2023-01-19T02:50:56.076Z,18.10
2023-01-19T02:51:56.055Z,17.10
2023-01-19T02:52:56.041Z,17.20
2023-01-19T02:53:56.030Z,17.00
2023-01-19T02:54:56.050Z,19.70
2023-01-19T02:55:56.030Z,18.30
2023-01-19T02:56:56.020Z,17.80
2023-01-19T02:57:56.004Z,17.60
2023-01-19T02:58:56.027Z,19.50
2023-01-19T02:59:56.011Z,18.10
2023-01-19T03:00:56.062Z,18.20
2023-01-19T03:01:56.099Z,19.10
2023-01-19T03:02:55.987Z,21.80
2023-01-19T03:03:55.982Z,17.30
2023-01-19T03:04:55.970Z,20.80
2023-01-19T03:05:55.980Z,18.70
2023-01-19T03:06:55.958Z,17.90
2023-01-19T03:07:55.943Z,18.60
2023-01-19T03:08:55.947Z,18.70
2023-01-19T03:09:55.944Z,17.40
2023-01-19T03:10:55.951Z,19.10
2023-01-19T03:11:55.921Z,17.80
2023-01-19T03:12:55.937Z,17.10
2023-01-19T03:13:55.907Z,18.90
2023-01-19T03:14:55.906Z,24.90
2023-01-19T03:15:55.973Z,20.20
2023-01-19T03:16:55.963Z,16.90
2023-01-19T03:17:55.885Z,19.90
2023-01-19T03:18:55.907Z,19.70
2023-01-19T03:19:55.862Z,18.60
2023-01-19T03:20:55.887Z,18.50
2023-01-19T03:21:55.870Z,19.30
2023-01-19T03:22:55.862Z,17.60
2023-01-19T03:23:55.850Z,19.00
2023-01-19T03:24:55.851Z,20.00
2023-01-19T03:25:55.853Z,18.00
2023-01-19T03:26:55.848Z,20.90
2023-01-19T03:27:55.833Z,21.00
2023-01-19T03:28:55.812Z,18.60
2023-01-19T03:29:55.817Z,19.70
2023-01-19T03:30:55.830Z,22.10
2023-01-19T03:31:55.820Z,18.20
2023-01-19T03:32:55.812Z,19.40
2023-01-19T03:33:55.797Z,20.20
2023-01-19T03:34:55.795Z,20.10
2023-01-19T03:35:55.777Z,18.50
2023-01-19T03:36:55.775Z,16.80
2023-01-19T03:37:55.802Z,21.40
2023-01-19T03:38:55.774Z,19.20
2023-01-19T03:39:55.754Z,19.70
2023-01-19T03:40:55.762Z,22.30
2023-01-19T03:41:55.754Z,21.30
2023-01-19T03:42:55.752Z,21.80
2023-01-19T03:43:55.765Z,22.10
2023-01-19T03:44:55.716Z,21.10
2023-01-19T03:45:55.750Z,23.30
2023-01-19T03:46:55.774Z,21.80
2023-01-19T03:47:55.710Z,18.60
2023-01-19T03:48:55.687Z,20.20
2023-01-19T03:49:55.694Z,22.40
2023-01-19T03:50:55.671Z,20.40
2023-01-19T03:51:55.682Z,18.40
2023-01-19T03:52:55.692Z,21.60
2023-01-19T03:53:55.667Z,20.50
2023-01-19T03:54:55.656Z,21.30
2023-01-19T03:55:55.663Z,19.40
2023-01-19T03:56:55.653Z,19.00
2023-01-19T03:57:55.658Z,24.70
2023-01-19T03:58:56.985Z,21.80
2023-01-19T03:59:56.621Z,24.00
2023-01-19T04:00:55.695Z,23.20
2023-01-19T04:01:55.686Z,19.90
2023-01-19T04:02:55.648Z,20.40
2023-01-19T04:03:55.596Z,22.10
2023-01-19T04:04:55.613Z,19.30
2023-01-19T04:05:55.589Z,21.90
2023-01-19T04:06:55.579Z,23.30
2023-01-19T04:07:55.639Z,19.60
2023-01-19T04:08:55.573Z,20.30
2023-01-19T04:09:55.555Z,21.10
2023-01-19T04:10:55.563Z,24.00
2023-01-19T04:11:55.550Z,19.30
2023-01-19T04:12:55.546Z,23.60
2023-01-19T04:13:55.559Z,19.40
2023-01-19T04:14:55.529Z,21.60
2023-01-19T04:15:55.552Z,19.90
2023-01-19T04:16:55.569Z,21.50
2023-01-19T04:17:55.528Z,19.90
2023-01-19T04:18:55.501Z,21.20
2023-01-19T04:19:55.506Z,19.90
2023-01-19T04:20:55.489Z,21.00
2023-01-19T04:21:55.490Z,21.80
2023-01-19T04:22:55.505Z,21.30
2023-01-19T04:23:55.469Z,24.70
2023-01-19T04:24:55.466Z,20.10
2023-01-19T04:25:55.481Z,20.80
2023-01-19T04:26:55.456Z,23.70
2023-01-19T04:27:55.485Z,22.20
2023-01-19T04:28:55.452Z,21.50
2023-01-19T04:29:55.433Z,20.60
2023-01-19T04:30:55.484Z,21.80
2023-01-19T04:31:55.445Z,22.80
2023-01-19T04:32:55.449Z,25.00
2023-01-19T04:33:55.419Z,25.30
2023-01-19T04:34:55.442Z,24.70
2023-01-19T04:35:55.434Z,25.60
2023-01-19T04:36:55.406Z,27.80
2023-01-19T04:37:55.426Z,30.00
2023-01-19T04:38:55.404Z,27.60
2023-01-19T04:39:55.404Z,25.40
2023-01-19T04:40:55.389Z,25.00
2023-01-19T04:41:55.386Z,23.00
2023-01-19T04:42:55.376Z,22.80
2023-01-19T04:43:55.353Z,25.80
2023-01-19T04:44:55.356Z,25.20
2023-01-19T04:45:56.375Z,27.70
2023-01-19T04:46:55.353Z,28.30
2023-01-19T04:47:55.350Z,27.60
2023-01-19T04:48:55.333Z,24.70
2023-01-19T04:49:55.339Z,28.70
2023-01-19T04:50:55.344Z,30.70
2023-01-19T04:51:55.310Z,25.90
2023-01-19T04:52:55.320Z,27.90
2023-01-19T04:53:55.350Z,29.90
2023-01-19T04:54:55.300Z,30.40
2023-01-19T04:55:55.302Z,30.90
2023-01-19T04:56:55.295Z,39.50
2023-01-19T04:57:55.304Z,38.40
2023-01-19T04:58:55.294Z,38.60
2023-01-19T04:59:55.296Z,32.20
2023-01-19T05:00:55.319Z,32.20
2023-01-19T05:01:55.278Z,38.00
2023-01-19T05:02:55.278Z,40.90
2023-01-19T05:03:55.297Z,39.70
2023-01-19T05:04:55.248Z,43.00
2023-01-19T05:05:55.234Z,43.60
2023-01-19T05:06:55.239Z,41.40
2023-01-19T05:07:55.229Z,39.20
2023-01-19T05:08:55.224Z,42.80
2023-01-19T05:09:55.240Z,38.50
2023-01-19T05:10:55.222Z,41.80
2023-01-19T05:11:55.205Z,38.00
2023-01-19T05:12:55.203Z,36.20
2023-01-19T05:13:55.211Z,37.00
2023-01-19T05:14:55.187Z,32.60
2023-01-19T05:15:55.284Z,42.80
2023-01-19T05:16:55.212Z,45.50
2023-01-19T05:17:55.160Z,40.10
2023-01-19T05:18:55.186Z,47.10
2023-01-19T05:19:55.144Z,49.00
2023-01-19T05:20:55.144Z,39.60
2023-01-19T05:21:55.176Z,38.80
2023-01-19T05:22:55.134Z,36.30
2023-01-19T05:23:55.132Z,37.20
2023-01-19T05:24:55.214Z,31.90
2023-01-19T05:25:56.119Z,30.60
2023-01-19T05:26:55.130Z,26.40
2023-01-19T05:27:55.121Z,23.30
2023-01-19T05:28:55.098Z,22.20
2023-01-19T05:29:55.095Z,23.20
2023-01-19T05:30:55.112Z,20.20
2023-01-19T05:31:55.121Z,22.90
2023-01-19T05:32:55.062Z,21.50
2023-01-19T05:33:55.070Z,20.50
2023-01-19T05:34:55.079Z,22.90
2023-01-19T05:35:55.094Z,19.40
2023-01-19T05:36:55.062Z,23.50
2023-01-19T05:37:55.439Z,20.80
2023-01-19T05:38:55.035Z,19.80
2023-01-19T05:39:55.082Z,19.00
2023-01-19T05:40:55.050Z,17.50
2023-01-19T05:41:55.032Z,21.10
2023-01-19T05:42:54.999Z,18.90
2023-01-19T05:43:55.009Z,21.10
2023-01-19T05:44:55.005Z,20.90
2023-01-19T05:45:54.999Z,19.00
2023-01-19T05:46:55.036Z,17.50
2023-01-19T05:47:54.971Z,20.60
2023-01-19T05:48:54.966Z,19.70
2023-01-19T05:49:54.968Z,19.70
2023-01-19T05:50:54.997Z,19.60
2023-01-19T05:51:54.973Z,22.70
2023-01-19T05:52:54.950Z,21.70
2023-01-19T05:53:54.957Z,18.80
2023-01-19T05:54:54.923Z,21.60
2023-01-19T05:55:54.976Z,22.10
2023-01-19T05:56:54.913Z,20.10
2023-01-19T05:57:54.910Z,20.90
2023-01-19T05:58:54.941Z,21.40
2023-01-19T05:59:55.018Z,21.70
2023-01-19T06:00:54.910Z,20.10
2023-01-19T06:01:55.517Z,22.20
2023-01-19T06:02:54.915Z,19.30
2023-01-19T06:03:54.939Z,18.80
2023-01-19T06:04:54.859Z,19.40
2023-01-19T06:05:54.854Z,20.10
2023-01-19T06:06:54.877Z,23.30
2023-01-19T06:07:54.847Z,20.80
2023-01-19T06:08:54.865Z,19.40
2023-01-19T06:09:54.852Z,22.10
2023-01-19T06:10:54.827Z,22.70
2023-01-19T06:11:54.851Z,23.50
2023-01-19T06:12:54.829Z,27.10
2023-01-19T06:13:54.800Z,27.80
2023-01-19T06:14:54.803Z,27.70
2023-01-19T06:15:54.832Z,22.90
2023-01-19T06:16:54.787Z,24.70
2023-01-19T06:17:54.817Z,22.20
2023-01-19T06:18:54.787Z,20.80
2023-01-19T06:19:54.780Z,25.60
2023-01-19T06:20:54.772Z,26.00
2023-01-19T06:21:54.790Z,25.40
2023-01-19T06:22:54.766Z,22.60
2023-01-19T06:23:54.795Z,18.90
2023-01-19T06:24:54.743Z,20.90
2023-01-19T06:25:54.952Z,23.50
2023-01-19T06:26:54.731Z,20.40
2023-01-19T06:27:54.765Z,21.00
2023-01-19T06:28:54.760Z,22.40
2023-01-19T06:29:54.755Z,17.60
2023-01-19T06:30:54.777Z,19.50
2023-01-19T06:31:54.790Z,21.50
2023-01-19T06:32:54.719Z,20.50
2023-01-19T06:33:54.729Z,22.60
2023-01-19T06:34:54.697Z,18.90
2023-01-19T06:35:54.669Z,20.20
2023-01-19T06:36:54.684Z,19.90
2023-01-19T06:37:54.758Z,19.60
2023-01-19T06:38:54.664Z,23.50
2023-01-19T06:39:54.654Z,20.80
2023-01-19T06:40:54.654Z,21.60
2023-01-19T06:41:55.509Z,19.80
2023-01-19T06:42:54.632Z,20.00
2023-01-19T06:43:54.645Z,20.00
2023-01-19T06:44:54.636Z,18.80
2023-01-19T06:45:54.740Z,19.60
2023-01-19T06:47:14.631Z,19.10
2023-01-19T06:47:55.636Z,23.70
2023-01-19T06:48:54.638Z,18.50
2023-01-19T06:49:54.614Z,22.30
2023-01-19T06:50:54.608Z,20.40
2023-01-19T06:51:54.613Z,19.60
2023-01-19T06:52:54.580Z,20.70
2023-01-19T06:53:54.571Z,21.20
2023-01-19T06:54:54.580Z,16.80
2023-01-19T06:55:54.573Z,19.20
2023-01-19T06:56:54.564Z,22.40
2023-01-19T06:57:54.587Z,18.00
2023-01-19T06:58:54.551Z,19.30
2023-01-19T06:59:54.539Z,19.50
2023-01-19T07:00:54.630Z,22.10
2023-01-19T07:01:54.632Z,21.60
2023-01-19T07:02:54.567Z,21.80
2023-01-19T07:03:54.518Z,22.50
2023-01-19T07:04:54.528Z,19.50
2023-01-19T07:05:54.504Z,18.90
2023-01-19T07:06:54.504Z,16.80
2023-01-19T07:07:55.542Z,18.20
2023-01-19T07:08:54.483Z,18.70
2023-01-19T07:09:54.467Z,19.20
2023-01-19T07:11:25.748Z,20.00
2023-01-19T07:11:55.559Z,17.90
2023-01-19T07:12:54.470Z,15.90
2023-01-19T07:13:54.508Z,19.10
2023-01-19T07:14:54.460Z,21.40
2023-01-19T07:15:55.541Z,18.60
2023-01-19T07:16:54.477Z,22.90
2023-01-19T07:17:54.501Z,18.60
2023-01-19T07:18:54.430Z,17.70
2023-01-19T07:19:54.418Z,19.40
2023-01-19T07:20:54.433Z,17.90
2023-01-19T07:21:54.398Z,18.10
2023-01-19T07:22:54.980Z,19.50
2023-01-19T07:23:54.438Z,18.10
2023-01-19T07:24:54.408Z,18.40
2023-01-19T07:25:54.397Z,17.90
2023-01-19T07:26:54.376Z,17.50
2023-01-19T07:27:54.364Z,20.20
2023-01-19T07:28:54.364Z,23.40
2023-01-19T07:29:54.406Z,18.00
2023-01-19T07:30:54.419Z,23.20
2023-01-19T07:31:54.395Z,18.50
2023-01-19T07:32:54.327Z,20.70
2023-01-19T07:33:54.349Z,19.20
2023-01-19T07:34:54.325Z,19.00
2023-01-19T07:35:54.316Z,19.00
2023-01-19T07:36:54.320Z,16.60
2023-01-19T07:37:54.308Z,19.40
2023-01-19T07:38:54.287Z,19.20
2023-01-19T07:39:54.334Z,20.40
2023-01-19T07:40:54.291Z,18.40
2023-01-19T07:41:54.748Z,17.30
2023-01-19T07:42:54.275Z,22.00
2023-01-19T07:43:54.261Z,18.50
2023-01-19T07:44:54.337Z,18.80
2023-01-19T07:45:54.292Z,19.70
2023-01-19T07:46:54.272Z,17.80
2023-01-19T07:47:54.244Z,19.60
2023-01-19T07:48:54.260Z,18.40
2023-01-19T07:49:54.224Z,16.70
2023-01-19T07:50:54.269Z,22.20
2023-01-19T07:51:54.232Z,18.80
2023-01-19T07:52:54.209Z,21.80
2023-01-19T07:53:54.235Z,20.90
2023-01-19T07:54:54.222Z,17.10
2023-01-19T07:55:54.231Z,20.50
2023-01-19T07:56:54.195Z,18.70
2023-01-19T07:57:54.198Z,22.50
2023-01-19T07:58:54.186Z,16.60
2023-01-19T07:59:54.190Z,17.60
2023-01-19T08:00:54.322Z,40.70
2023-01-19T08:01:54.464Z,18.50
2023-01-19T08:02:54.157Z,17.10
2023-01-19T08:03:54.195Z,17.50
2023-01-19T08:04:54.178Z,17.00
2023-01-19T08:05:54.139Z,19.70
2023-01-19T08:06:54.189Z,18.40
2023-01-19T08:07:54.282Z,18.90
2023-01-19T08:08:55.124Z,19.60
2023-01-19T08:09:54.141Z,21.20
2023-01-19T08:10:54.094Z,26.20
2023-01-19T08:11:54.136Z,19.50
2023-01-19T08:12:54.115Z,43.70
2023-01-19T08:13:54.097Z,40.00
2023-01-19T08:14:54.080Z,35.60
2023-01-19T08:15:54.129Z,39.70
2023-01-19T08:16:54.074Z,24.90
2023-01-19T08:17:54.099Z,48.30
2023-01-19T08:18:54.093Z,55.90
2023-01-19T08:19:54.045Z,24.80
2023-01-19T08:20:54.039Z,26.50
2023-01-19T08:21:54.054Z,37.20
2023-01-19T08:22:54.037Z,48.40
2023-01-19T08:23:54.074Z,27.70
2023-01-19T08:24:54.052Z,25.50
2023-01-19T08:25:54.007Z,37.00
2023-01-19T08:26:54.013Z,31.00
2023-01-19T08:27:54.032Z,31.90
2023-01-19T08:28:53.999Z,32.30
2023-01-19T08:29:53.998Z,24.80
2023-01-19T08:30:54.302Z,29.90
2023-01-19T08:31:54.014Z,27.80
2023-01-19T08:32:54.984Z,32.20
2023-01-19T08:33:54.034Z,23.10
2023-01-19T08:34:53.940Z,20.40
2023-01-19T08:35:53.958Z,28.20
2023-01-19T08:36:53.953Z,27.70
2023-01-19T08:37:53.933Z,21.10
2023-01-19T08:38:53.975Z,16.90
2023-01-19T08:39:53.972Z,17.20
2023-01-19T08:40:53.908Z,19.40
2023-01-19T08:41:53.910Z,15.80
2023-01-19T08:42:53.911Z,18.00
2023-01-19T08:43:53.921Z,17.50
2023-01-19T08:44:58.122Z,18.00
2023-01-19T08:45:54.897Z,17.50
2023-01-19T08:46:53.940Z,20.30
2023-01-19T08:47:53.878Z,28.80
2023-01-19T08:48:53.894Z,24.90
2023-01-19T08:49:54.874Z,33.70
2023-01-19T08:50:53.866Z,39.70
2023-01-19T08:51:53.872Z,20.90
2023-01-19T08:52:53.846Z,24.70
2023-01-19T08:53:53.849Z,33.80
2023-01-19T08:54:53.868Z,25.40
2023-01-19T08:55:53.833Z,25.70
2023-01-19T08:56:53.838Z,21.20
2023-01-19T08:57:53.818Z,26.00
2023-01-19T08:59:08.087Z,20.90
2023-01-19T08:59:55.830Z,21.00
2023-01-19T09:00:53.845Z,27.40
2023-01-19T09:01:53.951Z,17.20
2023-01-19T09:02:53.845Z,21.50
2023-01-19T09:03:53.781Z,22.20
2023-01-19T09:04:53.774Z,21.60
2023-01-19T09:05:54.128Z,21.20
2023-01-19T09:06:53.770Z,16.30
2023-01-19T09:07:53.750Z,21.60
2023-01-19T09:08:53.749Z,19.40
2023-01-19T09:09:53.765Z,19.20
2023-01-19T09:10:53.752Z,25.90
2023-01-19T09:11:53.739Z,19.10
2023-01-19T09:12:53.735Z,22.90
2023-01-19T09:13:53.730Z,18.80
2023-01-19T09:14:53.716Z,18.20
2023-01-19T09:15:53.728Z,24.80
2023-01-19T09:16:53.720Z,18.80
2023-01-19T09:17:53.696Z,18.90
2023-01-19T09:18:53.713Z,23.00
2023-01-19T09:19:53.679Z,25.80
2023-01-19T09:20:53.680Z,27.90
2023-01-19T09:21:53.704Z,18.80
2023-01-19T09:22:53.663Z,38.70
2023-01-19T09:23:53.671Z,26.20
2023-01-19T09:24:53.663Z,31.60
2023-01-19T09:25:53.647Z,29.60
2023-01-19T09:26:53.656Z,29.80
2023-01-19T09:27:53.643Z,37.60
2023-01-19T09:28:53.633Z,92.00
2023-01-19T09:29:53.624Z,137.20
2023-01-19T09:30:53.891Z,177.20
2023-01-19T09:31:53.677Z,217.90
2023-01-19T09:32:53.605Z,243.70
2023-01-19T09:33:53.610Z,189.30
2023-01-19T09:34:53.601Z,163.60
2023-01-19T09:35:53.590Z,192.90
2023-01-19T09:36:53.609Z,159.60
2023-01-19T09:37:53.574Z,179.50
2023-01-19T09:38:53.562Z,180.10
2023-01-19T09:39:53.661Z,205.80
2023-01-19T09:40:53.588Z,113.30
2023-01-19T09:41:53.550Z,86.90
2023-01-19T09:42:53.557Z,72.60
2023-01-19T09:43:53.555Z,81.20
2023-01-19T09:44:53.531Z,82.10
2023-01-19T09:45:53.537Z,105.00
2023-01-19T09:46:53.536Z,83.10
2023-01-19T09:47:53.536Z,101.30
2023-01-19T09:48:53.552Z,100.00
2023-01-19T09:49:53.518Z,93.80
2023-01-19T09:50:53.495Z,94.80
2023-01-19T09:51:54.485Z,105.50
2023-01-19T09:52:53.503Z,137.20
2023-01-19T09:53:53.587Z,120.00
2023-01-19T09:54:53.476Z,127.30
2023-01-19T09:55:53.489Z,124.60
2023-01-19T09:56:53.474Z,111.60
2023-01-19T09:57:53.505Z,104.10
2023-01-19T09:58:53.603Z,95.20
2023-01-19T09:59:53.440Z,102.20
2023-01-19T10:00:53.629Z,79.60
2023-01-19T10:01:53.487Z,80.00
2023-01-19T10:02:53.476Z,104.00
2023-01-19T10:03:53.485Z,89.60
2023-01-19T10:04:53.425Z,103.50
2023-01-19T10:05:53.418Z,112.20
2023-01-19T10:06:53.406Z,136.30
2023-01-19T10:07:53.475Z,121.50
2023-01-19T10:08:54.413Z,113.70
2023-01-19T10:09:53.380Z,175.80
2023-01-19T10:10:53.373Z,170.70
2023-01-19T10:11:53.697Z,163.00
2023-01-19T10:12:53.359Z,166.80
2023-01-19T10:13:53.353Z,172.60
2023-01-19T10:14:53.363Z,176.40
2023-01-19T10:15:53.394Z,162.90
2023-01-19T10:16:53.331Z,160.00
2023-01-19T10:17:53.365Z,140.50
2023-01-19T10:18:53.344Z,134.90
2023-01-19T10:19:53.317Z,121.30
2023-01-19T10:20:53.313Z,122.80
2023-01-19T10:21:53.312Z,132.90
2023-01-19T10:22:53.368Z,122.70
2023-01-19T10:23:53.300Z,128.30
2023-01-19T10:24:53.329Z,112.30
2023-01-19T10:25:53.455Z,112.00
2023-01-19T10:26:53.427Z,106.90
2023-01-19T10:27:53.290Z,92.70
2023-01-19T10:28:53.300Z,129.70
2023-01-19T10:29:53.266Z,133.70
2023-01-19T10:30:53.300Z,117.30
2023-01-19T10:31:53.337Z,127.50
2023-01-19T10:32:53.256Z,128.30
2023-01-19T10:33:53.235Z,127.60
2023-01-19T10:34:53.307Z,134.00
2023-01-19T10:35:54.228Z,134.00
2023-01-19T10:36:53.244Z,141.00
2023-01-19T10:37:53.215Z,134.40
2023-01-19T10:38:53.211Z,87.60
2023-01-19T10:39:53.238Z,102.60
2023-01-19T10:40:53.195Z,122.90
2023-01-19T10:41:53.348Z,129.50
2023-01-19T10:42:53.188Z,122.40
2023-01-19T10:43:53.194Z,113.50
2023-01-19T10:44:53.254Z,111.10
2023-01-19T10:45:53.226Z,91.10
2023-01-19T10:46:53.165Z,82.70
2023-01-19T10:47:53.241Z,99.60
2023-01-19T10:48:53.142Z,146.20
2023-01-19T10:49:53.182Z,148.50
2023-01-19T10:50:53.136Z,133.30
2023-01-19T10:51:53.150Z,76.90
2023-01-19T10:52:53.153Z,63.40
2023-01-19T10:53:53.111Z,94.90
2023-01-19T10:54:53.127Z,100.50
2023-01-19T10:55:53.166Z,114.40
2023-01-19T10:56:53.113Z,138.20
2023-01-19T10:57:53.197Z,129.70
2023-01-19T10:58:53.147Z,111.80
2023-01-19T10:59:53.188Z,80.90
2023-01-19T11:00:53.207Z,105.20
2023-01-19T11:01:53.267Z,119.50
2023-01-19T11:02:53.143Z,127.80
2023-01-19T11:03:53.149Z,134.70
2023-01-19T11:04:53.281Z,103.60
2023-01-19T11:05:53.058Z,105.50
2023-01-19T11:06:53.102Z,143.40
2023-01-19T11:07:53.124Z,127.80
2023-01-19T11:08:53.092Z,113.20
2023-01-19T11:09:53.010Z,139.50
2023-01-19T11:10:53.023Z,117.40
2023-01-19T11:11:53.030Z,101.90
2023-01-19T11:12:52.994Z,103.50
2023-01-19T11:13:53.000Z,121.40
2023-01-19T11:14:53.016Z,121.50
2023-01-19T11:15:52.995Z,84.90
2023-01-19T11:16:52.981Z,124.10
2023-01-19T11:17:52.958Z,173.10
2023-01-19T11:18:52.981Z,165.10
2023-01-19T11:19:52.974Z,153.30
2023-01-19T11:20:52.973Z,134.80
2023-01-19T11:21:52.973Z,136.10
2023-01-19T11:22:52.947Z,145.80
2023-01-19T11:23:52.947Z,152.70
2023-01-19T11:24:52.937Z,153.30
2023-01-19T11:25:52.958Z,140.40
2023-01-19T11:26:52.926Z,153.10
2023-01-19T11:27:52.972Z,118.40
2023-01-19T11:28:52.917Z,78.80
2023-01-19T11:29:52.949Z,87.70
2023-01-19T11:30:52.930Z,107.40
2023-01-19T11:31:52.948Z,120.90
2023-01-19T11:32:52.889Z,88.30
2023-01-19T11:33:52.897Z,95.70
2023-01-19T11:34:52.869Z,122.50
2023-01-19T11:35:52.887Z,127.20
2023-01-19T11:36:52.894Z,130.00
2023-01-19T11:37:52.860Z,136.80
2023-01-19T11:38:52.876Z,110.20
2023-01-19T11:39:52.861Z,120.40
2023-01-19T11:40:52.854Z,87.70
2023-01-19T11:41:52.828Z,137.80
2023-01-19T11:42:52.839Z,125.50
2023-01-19T11:43:52.824Z,144.00
2023-01-19T11:44:52.816Z,135.90
2023-01-19T11:45:52.873Z,119.30
2023-01-19T11:46:52.797Z,135.20
2023-01-19T11:47:52.794Z,122.20
2023-01-19T11:48:52.815Z,119.00
2023-01-19T11:49:52.787Z,120.80
2023-01-19T11:50:52.766Z,133.30
2023-01-19T11:51:52.780Z,150.90
2023-01-19T11:52:52.770Z,166.70
2023-01-19T11:53:52.775Z,160.50
2023-01-19T11:54:52.767Z,163.40
2023-01-19T11:55:52.762Z,169.00
2023-01-19T11:56:53.439Z,141.30
2023-01-19T11:57:54.364Z,111.50
2023-01-19T11:58:53.730Z,151.00
2023-01-19T11:59:52.732Z,113.70
2023-01-19T12:00:52.754Z,117.40
2023-01-19T12:01:52.777Z,153.30
2023-01-19T12:02:52.717Z,115.00
2023-01-19T12:03:54.696Z,98.70
2023-01-19T12:04:53.697Z,83.70
2023-01-19T12:05:52.693Z,91.20
2023-01-19T12:06:52.680Z,108.60
2023-01-19T12:07:52.691Z,140.00
2023-01-19T12:08:52.664Z,106.70
2023-01-19T12:09:52.652Z,83.70
2023-01-19T12:10:52.669Z,122.30
2023-01-19T12:11:52.652Z,87.40
2023-01-19T12:12:52.661Z,95.10
2023-01-19T12:13:53.858Z,92.50
2023-01-19T12:14:53.627Z,93.50
2023-01-19T12:15:52.630Z,92.40
2023-01-19T12:16:52.663Z,111.70
2023-01-19T12:17:52.615Z,109.30
2023-01-19T12:18:52.600Z,88.00
2023-01-19T12:19:54.844Z,85.10
2023-01-19T12:20:53.613Z,89.20
2023-01-19T12:21:52.634Z,82.50
2023-01-19T12:22:52.607Z,78.00
2023-01-19T12:23:52.590Z,90.10
2023-01-19T12:24:52.571Z,107.40
2023-01-19T12:25:54.776Z,145.10
2023-01-19T12:26:53.552Z,152.90
2023-01-19T12:27:52.631Z,94.10
2023-01-19T12:28:52.597Z,96.90
2023-01-19T12:29:52.569Z,78.90
2023-01-19T12:30:52.699Z,92.80
2023-01-19T12:31:52.645Z,101.10
2023-01-19T12:32:52.546Z,111.80
2023-01-19T12:33:52.539Z,107.50
2023-01-19T12:34:52.541Z,96.50
2023-01-19T12:35:52.559Z,121.90
2023-01-19T12:36:52.535Z,103.10
2023-01-19T12:37:52.501Z,96.30
2023-01-19T12:38:52.487Z,107.70
2023-01-19T12:39:52.516Z,107.20
2023-01-19T12:40:52.484Z,95.80
2023-01-19T12:41:52.506Z,93.60
2023-01-19T12:42:52.490Z,105.50
2023-01-19T12:43:52.472Z,117.00
2023-01-19T12:44:52.480Z,111.90
2023-01-19T12:45:53.490Z,105.20
2023-01-19T12:46:52.464Z,111.70
2023-01-19T12:47:52.991Z,121.10